Time;durP1;ratioP1;P1;durP2;ratioP2;P2;SDS_P1;SDS_P2;PMS_P1;PMS_P2;Temp;Humidity;BMP_temperature;BMP_pressure;BME280_temperature;BME280_humidity;BME280_pressure;Samples;Min_cycle;Max_cycle;Signal;HPM_P1;HPM_P2
2022/07/10 00:00:12;;;;;;;0.38;0.20;;;14.50;99.90;;;;;;5085558;28;20539;-82
2022/07/10 00:02:40;;;;;;;0.00;0.00;;;14.40;99.90;;;;;;5102047;28;20056;-82
2022/07/10 00:05:08;;;;;;;0.08;0.08;;;14.40;99.90;;;;;;5102271;28;20045;-83
2022/07/10 00:07:35;;;;;;;0.00;0.00;;;14.40;99.90;;;;;;5068910;28;20078;-82
2022/07/10 00:10:03;;;;;;;0.00;0.00;;;14.40;99.90;;;;;;5085523;28;20076;-82
2022/07/10 00:12:30;;;;;;;0.00;0.00;;;14.50;99.90;;;;;;5102356;28;20044;-83
2022/07/10 00:14:57;;;;;;;0.00;0.00;;;14.50;99.90;;;;;;5085659;28;20505;-83
2022/07/10 00:17:23;;;;;;;0.00;0.00;;;14.50;99.90;;;;;;5069123;28;20543;-82
2022/07/10 00:19:50;;;;;;;0.08;0.08;;;14.50;99.90;;;;;;5085860;28;20758;-81
2022/07/10 00:22:17;;;;;;;0.25;0.13;;;14.50;99.90;;;;;;5085556;28;20494;-83
2022/07/10 00:24:43;;;;;;;0.00;0.00;;;14.50;99.90;;;;;;5085082;28;20041;-82
2022/07/10 00:27:10;;;;;;;0.00;0.00;;;14.50;99.90;;;;;;5089153;28;20044;-82
2022/07/10 00:29:37;;;;;;;0.00;0.00;;;14.60;99.90;;;;;;5088820;28;20045;-82
2022/07/10 00:32:04;;;;;;;0.00;0.00;;;14.60;99.90;;;;;;5089492;28;20041;-82
2022/07/10 00:34:30;;;;;;;0.03;0.03;;;14.60;99.90;;;;;;5088989;28;20045;-83
2022/07/10 00:36:57;;;;;;;0.00;0.00;;;14.60;99.90;;;;;;5089328;28;20052;-81
2022/07/10 00:39:24;;;;;;;0.10;0.10;;;14.60;99.90;;;;;;5089001;28;20123;-82
2022/07/10 00:41:51;;;;;;;0.00;0.00;;;14.50;99.90;;;;;;5088068;28;20143;-82
2022/07/10 00:44:18;;;;;;;0.10;0.10;;;14.50;99.90;;;;;;5088681;28;20144;-82
2022/07/10 00:46:44;;;;;;;0.00;0.00;;;14.50;99.90;;;;;;5088115;28;20483;-82
2022/07/10 00:49:11;;;;;;;0.10;0.10;;;14.50;99.90;;;;;;5088367;28;20501;-83
2022/07/10 00:51:38;;;;;;;0.00;0.00;;;14.40;99.90;;;;;;5087960;28;20456;-82
2022/07/10 00:54:06;;;;;;;0.17;0.17;;;14.40;99.90;;;;;;5087986;28;20064;-83
2022/07/10 00:56:32;;;;;;;0.10;0.10;;;14.40;99.90;;;;;;5087840;28;20486;-82
2022/07/10 00:58:59;;;;;;;0.00;0.00;;;14.40;99.90;;;;;;5088090;28;20242;-83
2022/07/10 01:01:26;;;;;;;0.00;0.00;;;14.50;99.90;;;;;;5087787;28;20679;-83
2022/07/10 01:03:53;;;;;;;0.10;0.10;;;14.40;99.90;;;;;;5087719;28;20037;-81
2022/07/10 01:06:20;;;;;;;0.00;0.00;;;14.30;99.90;;;;;;5088017;28;20129;-83
2022/07/10 01:08:46;;;;;;;0.00;0.00;;;14.30;99.90;;;;;;5105070;28;20041;-82
2022/07/10 01:11:14;;;;;;;0.00;0.00;;;14.20;99.90;;;;;;5088340;28;20037;-82
2022/07/10 01:13:43;;;;;;;0.00;0.00;;;14.10;99.90;;;;;;5087819;28;20395;-82
2022/07/10 01:16:11;;;;;;;0.00;0.00;;;14.20;99.90;;;;;;5087887;28;20033;-83
2022/07/10 01:18:38;;;;;;;0.00;0.00;;;14.20;99.90;;;;;;5088101;28;20124;-82
2022/07/10 01:21:05;;;;;;;0.00;0.00;;;14.10;99.90;;;;;;5071281;28;20064;-83
2022/07/10 01:23:32;;;;;;;0.00;0.00;;;14.20;99.90;;;;;;5071095;28;20037;-83
2022/07/10 01:26:00;;;;;;;0.10;0.10;;;14.10;99.90;;;;;;5071332;28;20051;-82
2022/07/10 01:28:29;;;;;;;0.00;0.00;;;14.20;99.90;;;;;;5058420;28;20425;-82
2022/07/10 01:30:56;;;;;;;0.00;0.00;;;14.20;99.90;;;;;;5058805;28;20048;-81
2022/07/10 01:33:23;;;;;;;0.13;0.10;;;14.20;99.90;;;;;;5074973;28;20110;-83
2022/07/10 01:35:50;;;;;;;0.10;0.10;;;14.20;99.90;;;;;;5054389;28;20470;-83
2022/07/10 01:38:16;;;;;;;0.10;0.10;;;14.20;99.90;;;;;;5107859;28;20048;-82
2022/07/10 01:40:43;;;;;;;0.00;0.00;;;14.20;99.90;;;;;;5074307;28;20102;-83
2022/07/10 01:43:09;;;;;;;0.00;0.00;;;14.10;99.90;;;;;;5057989;28;20040;-82
2022/07/10 01:45:36;;;;;;;0.08;0.08;;;14.20;99.90;;;;;;5053876;28;20131;-82
2022/07/10 01:48:03;;;;;;;0.00;0.00;;;14.20;99.90;;;;;;5037693;28;20045;-82
2022/07/10 01:50:30;;;;;;;0.10;0.10;;;14.20;99.90;;;;;;5068624;28;20105;-82
2022/07/10 01:52:57;;;;;;;0.00;0.00;;;14.20;99.90;;;;;;5090622;28;20185;-83
2022/07/10 01:55:24;;;;;;;0.00;0.00;;;14.20;99.90;;;;;;5073767;28;20453;-82
2022/07/10 01:57:50;;;;;;;0.08;0.08;;;14.20;99.90;;;;;;5073718;28;20178;-82
2022/07/10 02:00:17;;;;;;;0.20;0.00;;;14.20;99.90;;;;;;5090814;28;20036;-82
2022/07/10 02:04:40;;;;;;;0.10;0.10;;;14.10;99.90;;;;;;5090623;28;20140;-82
2022/07/10 02:05:31;;;;;;;0.28;0.15;;;14.10;99.90;;;;;;5104865;28;20052;-83
2022/07/10 02:07:58;;;;;;;0.00;0.00;;;14.10;99.90;;;;;;5090824;28;20080;-83
2022/07/10 02:10:25;;;;;;;0.10;0.10;;;14.10;99.90;;;;;;5090650;28;20048;-82
2022/07/10 02:12:52;;;;;;;0.00;0.00;;;14.10;99.90;;;;;;5095516;28;20052;-83
2022/07/10 02:15:18;;;;;;;0.10;0.10;;;14.00;99.90;;;;;;5053882;28;20037;-83
2022/07/10 02:17:45;;;;;;;1.95;0.22;;;14.00;99.90;;;;;;5037349;28;20095;-81
2022/07/10 02:20:12;;;;;;;0.00;0.00;;;14.10;99.90;;;;;;5037853;28;20037;-83
2022/07/10 02:22:39;;;;;;;0.10;0.00;;;14.10;99.90;;;;;;5037045;28;20044;-81
2022/07/10 02:25:06;;;;;;;0.10;0.10;;;14.10;99.90;;;;;;5053392;28;20517;-82
2022/07/10 02:27:32;;;;;;;0.00;0.00;;;14.10;99.90;;;;;;5037637;28;20398;-82
2022/07/10 02:29:59;;;;;;;0.30;0.10;;;14.10;99.90;;;;;;5053476;28;20098;-83
2022/07/10 02:32:26;;;;;;;4.10;0.22;;;14.10;99.90;;;;;;5053909;28;20037;-82
2022/07/10 02:34:53;;;;;;;0.10;0.10;;;14.10;99.90;;;;;;5050930;28;20048;-82
2022/07/10 02:37:19;;;;;;;0.00;0.00;;;14.00;99.90;;;;;;5053863;28;20449;-83
2022/07/10 02:39:46;;;;;;;0.10;0.10;;;14.10;99.90;;;;;;5053546;28;20056;-83
2022/07/10 02:42:13;;;;;;;0.00;0.00;;;14.10;99.90;;;;;;5037432;28;20037;-82
2022/07/10 02:44:39;;;;;;;0.00;0.00;;;14.10;99.90;;;;;;5036955;28;20089;-82
2022/07/10 02:47:06;;;;;;;0.00;0.00;;;14.10;99.90;;;;;;5086410;28;20049;-83
2022/07/10 02:49:33;;;;;;;0.10;0.10;;;14.10;99.90;;;;;;5053123;28;20806;-84
2022/07/10 02:52:00;;;;;;;0.30;0.30;;;14.10;99.90;;;;;;5053340;28;20098;-83
2022/07/10 02:54:26;;;;;;;0.00;0.00;;;14.10;99.90;;;;;;5053528;28;20033;-83
2022/07/10 02:56:53;;;;;;;0.00;0.00;;;14.00;99.90;;;;;;5053321;28;20138;-82
2022/07/10 02:59:20;;;;;;;0.20;0.20;;;14.00;99.90;;;;;;5053303;28;20551;-82
2022/07/10 03:01:46;;;;;;;0.10;0.10;;;14.00;99.90;;;;;;5052982;28;20128;-82
2022/07/10 03:04:13;;;;;;;0.00;0.00;;;14.00;99.90;;;;;;5053112;28;20041;-83
2022/07/10 03:06:40;;;;;;;0.00;0.00;;;14.00;99.90;;;;;;5036963;28;20041;-83
2022/07/10 03:09:06;;;;;;;0.00;0.00;;;14.00;99.90;;;;;;5036296;28;20087;-83
2022/07/10 03:11:33;;;;;;;0.10;0.10;;;13.90;99.90;;;;;;5052941;28;20037;-83
2022/07/10 03:14:00;;;;;;;0.00;0.00;;;13.90;99.90;;;;;;5068794;28;20041;-83
2022/07/10 03:16:26;;;;;;;0.00;0.00;;;13.90;99.90;;;;;;5053256;28;20049;-82
2022/07/10 03:18:53;;;;;;;0.03;0.03;;;13.90;99.90;;;;;;5069458;28;20488;-82
2022/07/10 03:21:20;;;;;;;0.10;0.10;;;13.90;99.90;;;;;;5036138;28;20106;-83
2022/07/10 03:23:46;;;;;;;0.03;0.03;;;13.80;99.90;;;;;;5052405;28;20053;-82
2022/07/10 03:26:13;;;;;;;0.10;0.10;;;13.80;99.90;;;;;;5069404;28;20087;-83
2022/07/10 03:28:39;;;;;;;0.08;0.08;;;13.80;99.90;;;;;;5053391;28;20052;-82
2022/07/10 03:31:06;;;;;;;0.03;0.03;;;13.70;99.90;;;;;;5052901;28;20482;-81
2022/07/10 03:33:33;;;;;;;0.00;0.00;;;13.70;99.90;;;;;;5085795;28;20049;-82
2022/07/10 03:36:03;;;;;;;0.08;0.08;;;13.70;99.90;;;;;;5036080;28;20044;-82
2022/07/10 03:38:29;;;;;;;0.00;0.00;;;13.70;99.90;;;;;;5037468;28;20037;-81
2022/07/10 03:40:56;;;;;;;0.10;0.10;;;13.70;99.90;;;;;;5036146;28;20386;-83
2022/07/10 03:43:24;;;;;;;0.10;0.10;;;13.70;99.90;;;;;;5053049;28;20048;-81
2022/07/10 03:45:51;;;;;;;0.00;0.00;;;13.70;99.90;;;;;;5052678;28;20163;-82
2022/07/10 03:48:17;;;;;;;0.00;0.00;;;13.60;99.90;;;;;;5036460;28;20454;-83
2022/07/10 03:50:44;;;;;;;0.10;0.10;;;13.60;99.90;;;;;;5068827;28;20041;-82
2022/07/10 03:53:11;;;;;;;0.00;0.00;;;13.70;99.90;;;;;;5036094;28;20037;-82
2022/07/10 03:55:38;;;;;;;0.00;0.00;;;13.60;99.90;;;;;;5052863;28;20037;-83
2022/07/10 03:58:05;;;;;;;0.10;0.10;;;13.70;99.90;;;;;;5035674;28;20378;-82
2022/07/10 04:00:32;;;;;;;0.10;0.10;;;13.70;99.90;;;;;;5037877;28;20043;-81
2022/07/10 04:03:01;;;;;;;0.00;0.00;;;13.70;99.90;;;;;;5040256;28;20033;-82
2022/07/10 04:05:28;;;;;;;0.00;0.00;;;13.80;99.90;;;;;;5056739;28;20055;-83
2022/07/10 04:07:56;;;;;;;0.00;0.00;;;13.70;99.90;;;;;;5040174;28;20132;-82
2022/07/10 04:10:25;;;;;;;0.00;0.00;;;13.80;99.90;;;;;;5089452;28;20056;-83
2022/07/10 04:12:52;;;;;;;0.00;0.00;;;13.80;99.90;;;;;;5072940;28;20451;-83
2022/07/10 04:15:19;;;;;;;0.00;0.00;;;13.80;99.90;;;;;;5072346;28;20045;-82
2022/07/10 04:17:50;;;;;;;0.00;0.00;;;13.80;99.90;;;;;;5056437;28;20044;-83
2022/07/10 04:20:18;;;;;;;0.00;0.00;;;13.80;99.90;;;;;;5072501;28;20045;-83
2022/07/10 04:22:45;;;;;;;0.00;0.00;;;13.70;99.90;;;;;;5055878;28;20091;-83
2022/07/10 04:25:12;;;;;;;0.00;0.00;;;13.70;99.90;;;;;;5088797;28;20036;-82
2022/07/10 04:27:38;;;;;;;0.00;0.00;;;13.70;99.90;;;;;;5072189;28;20045;-82
2022/07/10 04:30:06;;;;;;;0.10;0.10;;;13.70;99.90;;;;;;5072099;28;20040;-83
2022/07/10 04:32:33;;;;;;;0.10;0.10;;;13.80;99.90;;;;;;5089136;28;20128;-83
2022/07/10 04:35:00;;;;;;;0.00;0.00;;;13.80;99.90;;;;;;5055314;28;20136;-82
2022/07/10 04:37:29;;;;;;;0.00;0.00;;;13.80;99.90;;;;;;5039853;28;20074;-82
2022/07/10 04:39:55;;;;;;;0.00;0.00;;;13.90;99.90;;;;;;5055963;28;20095;-83
2022/07/10 04:42:22;;;;;;;0.03;0.03;;;13.80;99.90;;;;;;5072433;28;20490;-82
2022/07/10 04:44:49;;;;;;;0.10;0.10;;;13.90;99.90;;;;;;5039396;28;20059;-84
2022/07/10 04:47:15;;;;;;;0.00;0.00;;;13.90;99.90;;;;;;5055204;28;20052;-82
2022/07/10 04:49:42;;;;;;;0.00;0.00;;;14.00;99.90;;;;;;5056217;28;20040;-82
2022/07/10 04:52:08;;;;;;;0.00;0.00;;;14.00;99.90;;;;;;5039464;28;20099;-82
2022/07/10 04:54:35;;;;;;;1.75;0.22;;;14.10;99.90;;;;;;5055584;28;20803;-82
2022/07/10 04:57:02;;;;;;;0.00;0.00;;;14.20;99.90;;;;;;5088340;28;20040;-83
2022/07/10 04:59:28;;;;;;;0.00;0.00;;;14.30;99.90;;;;;;5039154;28;20494;-82
2022/07/10 05:01:55;;;;;;;0.03;0.03;;;14.50;99.90;;;;;;5055301;28;20037;-82
2022/07/10 05:04:22;;;;;;;0.10;0.10;;;14.60;99.90;;;;;;5038595;28;20047;-82
2022/07/10 05:06:48;;;;;;;0.65;0.45;;;14.70;99.90;;;;;;5055123;28;20037;-82
2022/07/10 05:09:15;;;;;;;0.00;0.00;;;14.70;99.90;;;;;;5055148;28;20045;-82
2022/07/10 05:11:42;;;;;;;0.00;0.00;;;14.70;99.90;;;;;;5038474;28;20049;-81
2022/07/10 05:14:08;;;;;;;0.00;0.00;;;14.80;99.90;;;;;;5038554;28;20044;-81
2022/07/10 05:16:35;;;;;;;0.00;0.00;;;14.80;99.90;;;;;;5055034;28;20036;-82
2022/07/10 05:19:02;;;;;;;0.10;0.10;;;14.90;99.90;;;;;;5054953;28;20063;-83
2022/07/10 05:21:28;;;;;;;0.13;0.13;;;14.80;99.90;;;;;;5055164;28;20486;-83
2022/07/10 05:23:55;;;;;;;0.00;0.00;;;14.80;99.90;;;;;;5039004;28;20096;-82
2022/07/10 05:26:22;;;;;;;4.85;0.75;;;14.80;99.90;;;;;;5038226;28;20409;-83
2022/07/10 05:28:48;;;;;;;0.00;0.00;;;14.90;99.90;;;;;;5055258;28;20049;-82
2022/07/10 05:31:15;;;;;;;0.10;0.10;;;14.90;99.90;;;;;;5054518;28;20040;-82
2022/07/10 05:33:43;;;;;;;0.00;0.00;;;14.80;99.90;;;;;;5054774;28;20132;-82
2022/07/10 05:36:09;;;;;;;0.00;0.00;;;14.80;99.90;;;;;;5052515;28;20060;-82
2022/07/10 05:38:36;;;;;;;0.25;0.25;;;14.90;99.90;;;;;;5054645;28;20045;-83
2022/07/10 05:41:03;;;;;;;0.00;0.00;;;14.80;99.90;;;;;;5038324;28;20041;-82
2022/07/10 05:43:30;;;;;;;1.58;0.57;;;14.90;99.90;;;;;;5038398;28;20040;-82
2022/07/10 05:45:57;;;;;;;0.03;0.03;;;14.90;99.90;;;;;;5054417;28;20044;-83
2022/07/10 05:48:23;;;;;;;0.00;0.00;;;14.90;99.90;;;;;;5071008;28;20051;-83
2022/07/10 05:50:50;;;;;;;0.00;0.00;;;14.90;99.90;;;;;;5037944;28;20409;-83
2022/07/10 05:53:19;;;;;;;0.10;0.10;;;15.00;99.90;;;;;;5054573;28;20044;-83
2022/07/10 05:55:49;;;;;;;0.00;0.00;;;15.00;99.90;;;;;;5071434;28;20040;-82
2022/07/10 05:58:16;;;;;;;0.22;0.15;;;15.00;99.90;;;;;;5090259;28;20043;-83
2022/07/10 06:00:44;;;;;;;0.10;0.10;;;15.00;99.90;;;;;;5107746;28;20033;-82
2022/07/10 06:03:11;;;;;;;0.00;0.00;;;15.00;99.90;;;;;;5093585;28;20115;-82
2022/07/10 06:05:38;;;;;;;0.00;0.00;;;15.00;99.90;;;;;;5101927;28;20033;-83
2022/07/10 06:08:05;;;;;;;0.05;0.05;;;15.00;99.90;;;;;;5087363;28;20094;-83
2022/07/10 06:10:31;;;;;;;0.00;0.00;;;15.00;99.90;;;;;;5076394;28;20040;-81
2022/07/10 06:12:58;;;;;;;0.00;0.00;;;15.10;99.90;;;;;;5041096;28;20098;-83
2022/07/10 06:15:25;;;;;;;0.20;0.20;;;15.10;99.90;;;;;;5075459;28;20044;-83
2022/07/10 06:17:52;;;;;;;0.00;0.00;;;15.10;99.90;;;;;;5092370;28;20055;-81
2022/07/10 06:20:18;;;;;;;0.10;0.10;;;15.10;99.90;;;;;;5047875;28;20039;-82
2022/07/10 06:22:45;;;;;;;0.05;0.05;;;15.10;99.90;;;;;;5053284;28;20036;-83
2022/07/10 06:25:12;;;;;;;0.08;0.08;;;15.10;99.90;;;;;;5037433;28;20432;-82
2022/07/10 06:27:39;;;;;;;0.22;0.22;;;15.10;99.90;;;;;;5053686;28;20040;-82
2022/07/10 06:30:06;;;;;;;0.10;0.10;;;15.10;99.90;;;;;;5054130;28;20045;-82
2022/07/10 06:32:33;;;;;;;0.00;0.00;;;15.10;99.90;;;;;;5062900;28;20513;-83
2022/07/10 06:34:59;;;;;;;0.20;0.10;;;15.10;99.90;;;;;;5090018;28;20079;-82
2022/07/10 06:37:26;;;;;;;0.10;0.10;;;15.10;99.90;;;;;;5100713;28;20044;-85
2022/07/10 06:39:53;;;;;;;0.00;0.00;;;15.20;99.90;;;;;;5061799;28;20068;-83
2022/07/10 06:42:20;;;;;;;0.20;0.10;;;15.20;99.90;;;;;;5053186;28;20040;-82
2022/07/10 06:44:46;;;;;;;0.05;0.05;;;15.20;99.90;;;;;;5037360;28;20573;-83
2022/07/10 06:50:08;;;;;;;0.00;0.00;;;15.30;99.90;;;;;;5072951;28;20501;-82
2022/07/10 06:52:35;;;;;;;0.20;0.10;;;15.30;99.90;;;;;;5073101;28;20481;-83
2022/07/10 06:55:03;;;;;;;0.15;0.08;;;15.30;99.90;;;;;;5061888;28;20124;-82
2022/07/10 06:57:30;;;;;;;0.03;0.03;;;15.40;99.90;;;;;;5069053;28;20060;-83
2022/07/10 06:59:57;;;;;;;0.20;0.20;;;15.50;99.90;;;;;;5042483;28;20043;-82
2022/07/10 07:02:23;;;;;;;0.00;0.00;;;15.50;99.90;;;;;;5054546;28;20039;-82
2022/07/10 07:04:50;;;;;;;0.00;0.00;;;15.60;99.90;;;;;;5051119;28;20037;-82
2022/07/10 07:07:17;;;;;;;0.10;0.10;;;15.70;99.90;;;;;;5036614;28;20041;-82
2022/07/10 07:09:44;;;;;;;0.00;0.00;;;15.80;99.90;;;;;;5069126;28;20048;-83
2022/07/10 07:12:11;;;;;;;0.73;0.50;;;15.90;99.90;;;;;;5082258;28;20122;-83
2022/07/10 07:14:38;;;;;;;0.00;0.00;;;15.90;99.90;;;;;;5105858;28;20045;-81
2022/07/10 07:17:09;;;;;;;0.10;0.10;;;15.90;99.90;;;;;;5086863;28;20048;-84
2022/07/10 07:25:08;;;;;;;;;;;16.20;99.90;;;;;;5071674;28;20416;-83
2022/07/10 07:27:36;;;;;;;0.10;0.10;;;16.30;99.90;;;;;;5052555;28;19916;-83
2022/07/10 07:30:04;;;;;;;0.00;0.00;;;16.30;99.90;;;;;;5069170;28;20041;-83
2022/07/10 07:32:31;;;;;;;0.25;0.10;;;16.30;99.90;;;;;;5057988;28;20115;-83
2022/07/10 07:34:59;;;;;;;0.63;0.63;;;16.20;99.90;;;;;;5071873;28;20143;-85
2022/07/10 07:37:37;;;;;;;0.75;0.20;;;16.30;99.90;;;;;;5063042;28;20037;-83
2022/07/10 07:40:05;;;;;;;0.00;0.00;;;16.30;99.90;;;;;;5087540;28;20102;-83
2022/07/10 07:42:32;;;;;;;0.15;0.08;;;16.30;99.90;;;;;;5051925;28;20044;-83
2022/07/10 07:44:59;;;;;;;0.00;0.00;;;16.40;99.90;;;;;;5084461;28;20045;-83
2022/07/10 07:47:26;;;;;;;0.00;0.00;;;16.40;99.90;;;;;;5061563;28;20036;-85
2022/07/10 07:49:53;;;;;;;0.10;0.10;;;16.50;99.90;;;;;;5072587;28;20405;-85
2022/07/10 07:52:20;;;;;;;0.10;0.10;;;16.70;99.90;;;;;;5075425;28;20040;-82
2022/07/10 07:54:50;;;;;;;0.03;0.03;;;16.80;99.90;;;;;;5068312;28;20049;-84
2022/07/10 07:57:17;;;;;;;0.00;0.00;;;16.80;99.90;;;;;;5068769;28;20412;-82
2022/07/10 07:59:44;;;;;;;0.00;0.00;;;16.80;99.90;;;;;;5052172;28;20402;-82
2022/07/10 08:02:11;;;;;;;0.00;0.00;;;16.80;99.90;;;;;;5067689;28;20045;-84
2022/07/10 08:04:37;;;;;;;0.10;0.10;;;16.90;99.90;;;;;;5067564;28;20044;-84
2022/07/10 08:07:04;;;;;;;0.00;0.00;;;16.90;99.90;;;;;;5051857;28;20052;-82
2022/07/10 08:09:31;;;;;;;0.00;0.00;;;17.00;99.90;;;;;;5084628;28;20059;-82
2022/07/10 08:11:58;;;;;;;0.10;0.10;;;17.00;99.90;;;;;;5085142;28;20409;-82
2022/07/10 08:14:24;;;;;;;0.25;0.10;;;17.00;99.90;;;;;;5068180;28;20037;-83
2022/07/10 08:16:51;;;;;;;0.00;0.00;;;17.00;99.90;;;;;;5067684;28;20441;-83
2022/07/10 08:19:18;;;;;;;0.10;0.10;;;16.90;99.90;;;;;;5068573;28;20110;-85
2022/07/10 08:21:44;;;;;;;0.00;0.00;;;16.80;99.90;;;;;;5062758;28;20032;-82
2022/07/10 08:24:11;;;;;;;0.10;0.10;;;16.70;99.90;;;;;;5068121;28;20064;-84
2022/07/10 08:26:38;;;;;;;0.00;0.00;;;16.60;99.90;;;;;;5051853;28;20095;-82
2022/07/10 08:29:04;;;;;;;0.10;0.10;;;16.50;99.90;;;;;;5035842;28;20041;-81
2022/07/10 08:31:32;;;;;;;0.00;0.00;;;16.50;99.90;;;;;;5051126;28;20045;-82
2022/07/10 08:33:59;;;;;;;0.00;0.00;;;16.40;99.90;;;;;;5068777;28;20044;-82
2022/07/10 08:36:26;;;;;;;0.52;0.32;;;16.30;99.90;;;;;;5082980;28;20052;-84
2022/07/10 08:38:58;;;;;;;0.08;0.00;;;16.30;99.90;;;;;;5068262;28;20402;-84
2022/07/10 08:41:26;;;;;;;0.00;0.00;;;16.40;99.90;;;;;;5048093;28;20553;-84
2022/07/10 08:43:53;;;;;;;0.00;0.00;;;16.40;99.90;;;;;;5083052;28;20099;-82
2022/07/10 08:46:20;;;;;;;0.00;0.00;;;16.20;99.90;;;;;;5051713;28;20075;-85
2022/07/10 08:48:48;;;;;;;0.00;0.00;;;16.20;99.90;;;;;;5091971;28;20047;-83
2022/07/10 08:51:49;;;;;;;0.35;0.25;;;16.20;99.90;;;;;;5092369;28;20044;-85
2022/07/10 08:54:17;;;;;;;0.13;0.00;;;16.10;99.90;;;;;;5062025;28;20056;-86
2022/07/10 08:56:44;;;;;;;0.00;0.00;;;16.20;99.90;;;;;;5073102;28;20051;-84
2022/07/10 08:59:13;;;;;;;0.00;0.00;;;16.10;99.90;;;;;;5055056;28;20029;-84
2022/07/10 09:01:40;;;;;;;0.00;0.00;;;16.00;99.90;;;;;;5054923;28;20563;-83
2022/07/10 09:04:15;;;;;;;0.10;0.10;;;16.00;99.90;;;;;;5071670;28;20107;-85
2022/07/10 09:06:42;;;;;;;0.03;0.03;;;16.10;99.90;;;;;;5072211;28;20049;-84
2022/07/10 09:09:10;;;;;;;0.00;0.00;;;16.10;99.90;;;;;;5071907;28;20047;-84
2022/07/10 09:11:40;;;;;;;0.00;0.00;;;16.10;99.90;;;;;;5071189;28;20072;-82
2022/07/10 09:14:11;;;;;;;0.00;0.00;;;16.20;99.90;;;;;;5071335;28;20048;-84
2022/07/10 09:16:39;;;;;;;0.17;0.10;;;16.40;99.90;;;;;;5054986;28;20041;-84
2022/07/10 09:19:20;;;;;;;0.00;0.00;;;16.50;99.90;;;;;;5087814;28;20401;-83
2022/07/10 09:21:51;;;;;;;0.00;0.00;;;16.60;99.90;;;;;;5070987;28;20242;-84
2022/07/10 09:24:22;;;;;;;0.00;0.00;;;16.80;99.90;;;;;;5071756;28;20390;-82
2022/07/10 09:27:00;;;;;;;0.00;0.00;;;16.90;99.90;;;;;;5071383;28;20048;-82
2022/07/10 09:29:27;;;;;;;0.00;0.00;;;17.00;99.90;;;;;;5054582;28;20049;-84
2022/07/10 09:32:01;;;;;;;0.00;0.00;;;17.10;99.90;;;;;;5038518;28;20041;-82
2022/07/10 09:34:48;;;;;;;0.00;0.00;;;17.20;99.90;;;;;;5056072;28;20799;-83
2022/07/10 09:37:17;;;;;;;0.00;0.00;;;17.20;99.90;;;;;;5074256;28;20044;-82
2022/07/10 09:40:10;;;;;;;0.00;0.00;;;17.20;99.90;;;;;;5090441;28;20063;-83
2022/07/10 09:42:39;;;;;;;0.00;0.00;;;17.20;99.90;;;;;;5070256;28;20052;-83
2022/07/10 09:45:15;;;;;;;0.00;0.00;;;17.20;99.90;;;;;;5060500;28;20097;-82
2022/07/10 09:47:44;;;;;;;0.00;0.00;;;17.10;99.90;;;;;;5072713;28;20044;-84
2022/07/10 09:50:22;;;;;;;0.03;0.03;;;17.10;99.90;;;;;;5090962;28;20040;-83
2022/07/10 09:52:51;;;;;;;0.00;0.00;;;17.00;99.90;;;;;;5070956;28;20048;-82
2022/07/10 09:55:26;;;;;;;0.00;0.00;;;17.00;99.90;;;;;;5090553;28;20032;-83
2022/07/10 09:57:57;;;;;;;0.00;0.00;;;16.90;99.90;;;;;;5059224;28;20084;-82
2022/07/10 10:00:29;;;;;;;0.00;0.00;;;16.80;99.90;;;;;;5105527;28;20037;-83
2022/07/10 10:03:01;;;;;;;0.00;0.00;;;16.70;99.90;;;;;;5091136;28;20063;-82
2022/07/10 10:05:53;;;;;;;0.00;0.00;;;16.70;99.90;;;;;;5074125;28;20056;-82
2022/07/10 10:08:24;;;;;;;0.00;0.00;;;16.70;99.90;;;;;;5130529;28;20040;-85
2022/07/10 10:10:51;;;;;;;0.00;0.00;;;16.60;99.90;;;;;;5078338;28;20100;-83
2022/07/10 10:13:19;;;;;;;0.00;0.00;;;16.60;99.90;;;;;;5082127;28;20051;-87
2022/07/10 10:15:48;;;;;;;0.20;0.10;;;16.60;99.90;;;;;;5076051;28;20048;-85
2022/07/10 10:18:17;;;;;;;0.00;0.00;;;16.60;99.90;;;;;;5091605;28;20538;-85
2022/07/10 10:20:47;;;;;;;0.00;0.00;;;16.50;99.90;;;;;;5082739;28;20093;-84
2022/07/10 10:23:26;;;;;;;0.10;0.10;;;16.60;99.90;;;;;;5100545;28;20059;-84
2022/07/10 10:25:54;;;;;;;0.03;0.03;;;16.50;99.90;;;;;;5109954;28;20132;-83
2022/07/10 10:28:26;;;;;;;0.00;0.00;;;16.50;99.90;;;;;;5101987;28;20116;-82
2022/07/10 10:30:58;;;;;;;0.00;0.00;;;16.50;99.90;;;;;;5062769;28;20165;-84
2022/07/10 10:33:42;;;;;;;0.00;0.00;;;16.40;99.90;;;;;;5079393;28;20048;-84
2022/07/10 10:36:14;;;;;;;0.00;0.00;;;16.50;99.90;;;;;;5088704;28;20064;-83
2022/07/10 10:38:55;;;;;;;0.00;0.00;;;16.40;99.90;;;;;;5110055;28;20044;-85
2022/07/10 10:41:27;;;;;;;0.00;0.00;;;16.40;99.90;;;;;;5083079;28;20043;-83
2022/07/10 10:44:13;;;;;;;0.05;0.05;;;16.30;99.90;;;;;;5093264;28;20119;-83
2022/07/10 10:47:05;;;;;;;0.00;0.00;;;16.40;99.90;;;;;;5088893;28;20567;-84
2022/07/10 10:49:50;;;;;;;0.00;0.00;;;16.40;99.90;;;;;;5072974;28;20074;-85
2022/07/10 10:52:18;;;;;;;0.00;0.00;;;16.30;99.90;;;;;;5090009;28;20043;-84
2022/07/10 10:54:57;;;;;;;0.00;0.00;;;16.40;99.90;;;;;;5106084;28;20047;-86
2022/07/10 10:57:44;;;;;;;0.00;0.00;;;16.50;99.90;;;;;;5109782;28;20692;-84
2022/07/10 11:00:29;;;;;;;0.00;0.00;;;16.70;99.90;;;;;;5090203;28;20072;-87
2022/07/10 11:03:22;;;;;;;0.00;0.00;;;16.90;99.90;;;;;;5093424;28;20048;-86
2022/07/10 11:05:50;;;;;;;0.00;0.00;;;16.90;99.90;;;;;;5069802;28;20036;-85
2022/07/10 11:08:44;;;;;;;0.00;0.00;;;16.90;99.90;;;;;;5056218;28;20767;-85
2022/07/10 11:11:32;;;;;;;0.08;0.05;;;16.90;99.90;;;;;;5072950;28;20170;-85
2022/07/10 11:13:59;;;;;;;0.00;0.00;;;16.80;99.90;;;;;;5052087;28;20087;-85
2022/07/10 11:16:26;;;;;;;0.10;0.10;;;16.80;99.90;;;;;;5078496;28;20097;-86
2022/07/10 11:18:53;;;;;;;0.10;0.10;;;16.90;99.90;;;;;;5086442;28;20041;-85
2022/07/10 11:21:25;;;;;;;0.00;0.00;;;17.00;99.90;;;;;;5092825;28;20032;-86
2022/07/10 11:24:24;;;;;;;0.10;0.10;;;17.00;99.90;;;;;;5092473;28;20036;-86
2022/07/10 11:27:20;;;;;;;0.00;0.00;;;17.10;99.90;;;;;;5091498;28;20040;-85
2022/07/10 11:29:55;;;;;;;0.00;0.00;;;17.20;99.90;;;;;;5109953;28;20673;-86
2022/07/10 11:32:22;;;;;;;0.00;0.00;;;17.20;99.90;;;;;;5092749;28;20048;-86
2022/07/10 11:34:49;;;;;;;0.00;0.00;;;17.30;99.90;;;;;;5055672;28;20044;-86
2022/07/10 11:37:16;;;;;;;0.00;0.00;;;17.10;99.90;;;;;;5068322;28;20045;-85
2022/07/10 11:39:43;;;;;;;0.00;0.00;;;17.00;99.90;;;;;;5102196;28;20033;-86
2022/07/10 11:42:10;;;;;;;0.10;0.10;;;16.70;99.90;;;;;;5103259;28;20044;-85
2022/07/10 11:44:37;;;;;;;0.00;0.00;;;16.60;99.90;;;;;;5102616;28;20417;-86
2022/07/10 11:47:05;;;;;;;0.05;0.03;;;16.50;99.90;;;;;;5096034;28;20048;-86
2022/07/10 11:49:32;;;;;;;0.00;0.00;;;16.50;99.90;;;;;;5085879;28;20134;-86
2022/07/10 11:52:04;;;;;;;0.10;0.03;;;16.40;99.90;;;;;;5085406;28;20041;-84
2022/07/10 11:54:31;;;;;;;0.10;0.10;;;16.50;99.90;;;;;;5085785;28;20040;-86
2022/07/10 11:57:05;;;;;;;0.10;0.10;;;16.60;99.90;;;;;;5054857;28;20045;-85
2022/07/10 11:59:32;;;;;;;0.00;0.00;;;16.60;99.90;;;;;;5067996;28;20029;-87
2022/07/10 12:01:58;;;;;;;0.05;0.05;;;16.60;99.90;;;;;;5088562;28;20051;-86
2022/07/10 12:04:28;;;;;;;0.00;0.00;;;16.60;99.90;;;;;;5055720;28;20068;-86
2022/07/10 12:06:55;;;;;;;0.43;0.20;;;16.50;99.90;;;;;;5062439;28;20757;-86
2022/07/10 12:09:23;;;;;;;0.00;0.00;;;16.50;99.90;;;;;;5085687;28;20037;-86
2022/07/10 12:12:09;;;;;;;0.00;0.00;;;16.50;99.90;;;;;;5088445;28;20044;-87
2022/07/10 12:14:36;;;;;;;0.00;0.00;;;16.40;99.90;;;;;;5109052;28;20032;-86
2022/07/10 12:17:12;;;;;;;0.00;0.00;;;16.40;99.90;;;;;;5089148;28;20503;-86
2022/07/10 12:19:39;;;;;;;0.00;0.00;;;16.40;99.90;;;;;;5053543;28;20044;-86
2022/07/10 12:22:07;;;;;;;0.03;0.03;;;16.40;99.90;;;;;;5054176;28;20437;-86
2022/07/10 12:24:35;;;;;;;0.00;0.00;;;16.50;99.90;;;;;;5094065;28;20041;-86
2022/07/10 12:27:01;;;;;;;0.08;0.08;;;16.50;99.90;;;;;;5072378;28;20749;-85
2022/07/10 12:29:30;;;;;;;0.05;0.05;;;16.60;99.90;;;;;;5069014;28;20076;-87
2022/07/10 12:32:03;;;;;;;0.00;0.00;;;16.70;99.90;;;;;;5064429;28;20104;-88
2022/07/10 12:34:36;;;;;;;0.03;0.00;;;16.70;99.90;;;;;;5058927;28;20045;-88
2022/07/10 12:37:11;;;;;;;0.05;0.05;;;16.70;99.90;;;;;;5092337;28;20040;-86
2022/07/10 12:39:49;;;;;;;0.00;0.00;;;16.70;99.90;;;;;;5076975;28;20090;-85
2022/07/10 12:42:32;;;;;;;0.10;0.10;;;16.70;99.90;;;;;;5092553;28;20032;-85
2022/07/10 12:45:12;;;;;;;0.00;0.00;;;16.80;99.90;;;;;;5069983;28;20497;-87
2022/07/10 12:47:50;;;;;;;0.10;0.10;;;16.90;99.90;;;;;;5084494;28;20032;-87
2022/07/10 12:50:18;;;;;;;0.10;0.10;;;16.90;99.90;;;;;;5053996;28;20036;-87
2022/07/10 12:52:44;;;;;;;0.10;0.10;;;17.00;99.90;;;;;;5058703;28;20075;-87
2022/07/10 12:55:25;;;;;;;0.00;0.00;;;17.00;99.90;;;;;;5043642;28;20076;-85
2022/07/10 12:57:53;;;;;;;0.00;0.00;;;17.00;99.90;;;;;;5079374;28;20048;-85
2022/07/10 13:00:25;;;;;;;0.00;0.00;;;17.00;99.90;;;;;;5123206;28;20091;-89
2022/07/10 13:03:06;;;;;;;0.10;0.10;;;17.10;99.90;;;;;;5075884;28;20043;-85
2022/07/10 13:05:42;;;;;;;0.08;0.08;;;17.20;99.90;;;;;;5092238;28;20040;-88